Time;durP1;ratioP1;P1;durP2;ratioP2;P2;SDS_P1;SDS_P2;PMS_P1;PMS_P2;Temp;Humidity;BMP_temperature;BMP_pressure;BME280_temperature;BME280_humidity;BME280_pressure;Samples;Min_cycle;Max_cycle;Signal;HPM_P1;HPM_P2
2021/04/28 00:01:39;;;;;;;28.23;16.12;;;;;;;3.98;56.85;100442.79;1586536;89;25368;-74
2021/04/28 00:04:06;;;;;;;28.15;15.18;;;;;;;4.03;56.96;100438.53;1585755;90;25769;-73
2021/04/28 00:06:34;;;;;;;24.70;14.35;;;;;;;4.03;56.75;100441.59;1585190;90;25791;-73
2021/04/28 00:09:03;;;;;;;26.02;15.58;;;;;;;4.04;56.57;100437.60;1598814;88;25751;-73
2021/04/28 00:11:29;;;;;;;26.10;15.68;;;;;;;4.06;56.58;100430.52;1574209;89;25787;-73
2021/04/28 00:13:54;;;;;;;29.57;15.50;;;;;;;4.09;56.45;100429.46;1596593;89;25873;-73
2021/04/28 00:16:20;;;;;;;26.63;15.60;;;;;;;4.11;56.48;100437.45;1585883;90;25512;-74
2021/04/28 00:18:49;;;;;;;27.37;16.73;;;;;;;4.11;56.38;100435.34;1585614;90;25952;-74
2021/04/28 00:21:15;;;;;;;26.00;15.08;;;;;;;4.13;56.33;100428.29;1599692;88;25732;-73
2021/04/28 00:23:43;;;;;;;27.82;15.35;;;;;;;4.14;56.27;100429.45;1574510;89;25405;-76
2021/04/28 00:26:12;;;;;;;22.17;13.20;;;;;;;4.11;56.10;100428.39;1579725;89;25862;-76
2021/04/28 00:28:39;;;;;;;23.02;13.40;;;;;;;4.08;55.95;100423.95;1586054;89;25667;-76
2021/04/28 00:31:05;;;;;;;24.60;14.13;;;;;;;4.00;55.90;100428.42;1585913;88;25918;-76
2021/04/28 00:33:32;;;;;;;24.12;13.58;;;;;;;4.00;55.95;100422.78;1585735;89;25301;-76
2021/04/28 00:35:58;;;;;;;24.50;14.03;;;;;;;3.98;55.83;100425.13;1586358;90;27204;-76
2021/04/28 00:38:24;;;;;;;23.38;12.37;;;;;;;3.95;55.82;100426.67;1584848;89;25860;-76
2021/04/28 00:40:50;;;;;;;22.37;13.75;;;;;;;3.90;55.79;100418.00;1586581;89;25837;-76
2021/04/28 00:43:17;;;;;;;22.52;13.10;;;;;;;3.88;55.87;100422.94;1585752;89;25374;-76
2021/04/28 00:45:44;;;;;;;20.23;13.22;;;;;;;3.86;55.89;100420.47;1586304;90;25489;-76
2021/04/28 00:48:11;;;;;;;26.35;12.80;;;;;;;3.86;55.83;100417.06;1585871;90;25313;-74
2021/04/28 00:50:42;;;;;;;20.32;12.47;;;;;;;3.86;55.92;100417.88;1585485;89;25350;-74
2021/04/28 00:53:09;;;;;;;;;;;;;;;3.88;55.88;100421.66;1587865;90;26390;-73
2021/04/28 00:55:36;;;;;;;20.48;12.68;;;;;;;3.89;55.98;100424.09;1599256;88;25826;-73
2021/04/28 00:58:04;;;;;;;21.82;12.55;;;;;;;3.91;56.07;100417.53;1573683;89;25426;-73
2021/04/28 01:00:30;;;;;;;25.65;13.72;;;;;;;3.93;55.98;100422.93;1576062;89;25768;-74
2021/04/28 01:02:58;;;;;;;22.80;13.80;;;;;;;3.90;55.95;100424.47;1568561;90;26621;-73
2021/04/28 01:05:25;;;;;;;23.65;12.80;;;;;;;3.90;55.91;100422.33;1585187;89;25729;-73
2021/04/28 01:07:52;;;;;;;21.30;13.80;;;;;;;3.89;56.08;100430.56;1585086;88;25990;-73
2021/04/28 01:10:24;;;;;;;24.00;13.75;;;;;;;3.86;56.02;100423.05;1598643;88;25817;-73
2021/04/28 01:12:51;;;;;;;25.92;14.80;;;;;;;3.82;56.09;100424.69;1553091;89;26597;-73
2021/04/28 01:15:22;;;;;;;20.62;13.05;;;;;;;3.80;56.15;100422.72;1599639;88;25935;-72
2021/04/28 01:17:51;;;;;;;24.45;14.60;;;;;;;3.77;56.19;100422.48;1600591;88;25891;-74
2021/04/28 01:20:22;;;;;;;25.05;14.03;;;;;;;3.75;56.14;100419.19;1575581;89;25393;-74
2021/04/28 01:22:49;;;;;;;25.17;15.10;;;;;;;3.76;55.96;100416.95;1595691;88;25382;-74
2021/04/28 01:25:19;;;;;;;27.20;13.10;;;;;;;3.75;55.95;100418.72;1599789;88;25775;-74
2021/04/28 01:28:11;;;;;;;26.20;14.30;;;;;;;3.75;55.94;100418.72;1574239;89;25709;-74
2021/04/28 01:31:04;;;;;;;30.37;14.33;;;;;;;3.73;55.76;100410.73;1578093;89;26840;-74
2021/04/28 01:33:50;;;;;;;24.32;14.73;;;;;;;3.70;55.76;100405.33;1584462;88;25975;-73
2021/04/28 01:36:24;;;;;;;24.65;13.10;;;;;;;3.70;55.73;100410.97;1585556;90;25824;-73
2021/04/28 01:38:56;;;;;;;26.97;14.70;;;;;;;3.69;55.68;100403.69;1585302;89;25430;-73
2021/04/28 01:41:26;;;;;;;28.38;15.20;;;;;;;3.70;55.99;100407.09;1585558;90;25758;-74
2021/04/28 01:43:55;;;;;;;24.10;13.25;;;;;;;3.72;55.92;100402.16;1585483;89;25903;-74
2021/04/28 01:46:28;;;;;;;24.52;14.63;;;;;;;3.72;55.80;100409.09;1585329;89;25921;-74
2021/04/28 01:48:55;;;;;;;26.05;14.95;;;;;;;3.65;56.00;100401.45;1599789;89;25842;-74
2021/04/28 01:51:22;;;;;;;23.42;15.08;;;;;;;3.62;56.13;100399.93;1573832;89;25385;-75
2021/04/28 01:53:49;;;;;;;30.27;15.10;;;;;;;3.59;56.15;100396.30;1596814;88;25331;-75
2021/04/28 01:56:15;;;;;;;24.90;15.50;;;;;;;3.55;56.27;100400.08;1572610;90;25814;-75
2021/04/28 01:58:47;;;;;;;26.73;14.05;;;;;;;3.53;56.39;100395.02;1586498;89;25371;-75
2021/04/28 02:01:25;;;;;;;29.72;15.15;;;;;;;3.47;56.39;100397.26;1585921;89;25822;-75
2021/04/28 02:03:54;;;;;;;24.40;14.18;;;;;;;3.40;56.59;100393.48;1584391;88;25789;-76
2021/04/28 02:06:20;;;;;;;29.02;15.60;;;;;;;3.29;56.65;100393.02;1585924;89;25922;-76
2021/04/28 02:08:46;;;;;;;28.15;15.88;;;;;;;3.19;56.98;100392.07;1585893;88;25620;-76
2021/04/28 02:11:13;;;;;;;32.20;15.65;;;;;;;3.15;57.10;100390.67;1585871;88;25772;-76
2021/04/28 02:13:45;;;;;;;35.25;19.17;;;;;;;3.11;57.28;100390.91;1586442;90;25397;-76
2021/04/28 02:16:23;;;;;;;33.95;18.98;;;;;;;3.08;57.46;100384.69;1582780;90;25392;-76
2021/04/28 02:18:50;;;;;;;32.95;21.05;;;;;;;3.03;57.38;100386.80;1586363;88;25338;-76
2021/04/28 02:21:16;;;;;;;30.48;18.67;;;;;;;2.99;57.52;100384.08;1586413;89;25640;-76
2021/04/28 02:23:50;;;;;;;31.33;18.50;;;;;;;2.93;57.78;100380.67;1585143;89;25596;-76
2021/04/28 02:26:19;;;;;;;26.05;16.55;;;;;;;2.85;57.87;100385.59;1586106;89;25868;-76
2021/04/28 02:28:44;;;;;;;26.15;16.30;;;;;;;2.82;58.00;100386.64;1586329;89;25534;-76
2021/04/28 02:31:11;;;;;;;26.42;16.37;;;;;;;2.84;58.03;100383.48;1586263;89;25378;-76
2021/04/28 02:33:38;;;;;;;31.62;21.02;;;;;;;2.88;58.11;100382.77;1585846;90;25743;-76
2021/04/28 02:36:08;;;;;;;;;;;;;;;2.84;58.15;100378.31;1583461;88;25866;-76
2021/04/28 02:38:57;;;;;;;33.13;24.72;;;;;;;2.81;58.31;100383.72;1572709;89;25892;-76
2021/04/28 02:41:31;;;;;;;34.55;20.77;;;;;;;2.77;58.34;100387.44;1596424;89;25807;-76
2021/04/28 02:43:59;;;;;;;31.48;20.12;;;;;;;2.78;58.29;100383.09;1599986;89;25326;-76
2021/04/28 02:46:28;;;;;;;35.00;18.57;;;;;;;2.79;58.37;100379.13;1574467;89;25761;-76
2021/04/28 02:48:57;;;;;;;26.52;17.67;;;;;;;2.68;58.47;100379.58;1600564;88;25375;-76
2021/04/28 02:51:35;;;;;;;29.85;17.00;;;;;;;2.68;58.47;100379.58;1600948;88;26057;-76
2021/04/28 02:54:05;;;;;;;30.57;18.48;;;;;;;2.69;58.64;100383.79;1600092;88;25323;-76
2021/04/28 02:56:32;;;;;;;28.92;17.02;;;;;;;2.62;58.71;100379.56;1600174;89;25334;-76
2021/04/28 02:59:00;;;;;;;26.35;16.62;;;;;;;2.57;58.74;100376.50;1600058;88;25784;-76
2021/04/28 03:01:28;;;;;;;26.33;16.70;;;;;;;2.58;58.88;100378.13;1575303;89;25382;-76
2021/04/28 03:03:55;;;;;;;30.20;17.65;;;;;;;2.54;58.87;100374.15;1597257;89;25662;-76
2021/04/28 03:06:26;;;;;;;31.37;17.75;;;;;;;2.49;58.92;100374.95;1579111;89;25794;-76
2021/04/28 03:08:58;;;;;;;39.53;19.25;;;;;;;2.43;59.10;100378.33;1585806;89;25738;-76
2021/04/28 03:11:24;;;;;;;30.40;19.23;;;;;;;2.41;59.17;100377.61;1585831;89;25886;-76
2021/04/28 03:13:51;;;;;;;33.90;18.82;;;;;;;2.41;59.28;100384.06;1565471;88;25403;-75
2021/04/28 03:16:17;;;;;;;40.17;19.77;;;;;;;2.41;59.34;100382.77;1601140;89;25350;-75
2021/04/28 03:18:44;;;;;;;34.90;19.95;;;;;;;2.41;59.44;100384.53;1576157;89;25330;-75
2021/04/28 03:21:12;;;;;;;32.75;20.10;;;;;;;2.38;59.39;100380.42;1597368;89;25830;-75
2021/04/28 03:23:41;;;;;;;33.88;21.00;;;;;;;2.38;59.48;100381.71;1586259;89;25970;-75
2021/04/28 03:26:10;;;;;;;31.80;19.67;;;;;;;2.38;59.48;100383.00;1586068;90;25488;-75
2021/04/28 03:28:37;;;;;;;33.33;20.77;;;;;;;2.39;59.55;100385.92;1586272;89;25779;-73
2021/04/28 03:31:04;;;;;;;36.25;20.95;;;;;;;2.35;59.59;100388.38;1585855;89;25865;-73
2021/04/28 03:33:31;;;;;;;31.60;19.45;;;;;;;2.34;59.71;100385.43;1585034;90;25350;-73
2021/04/28 03:36:02;;;;;;;43.45;21.97;;;;;;;2.34;59.81;100382.85;1585424;90;25926;-73
2021/04/28 03:38:31;;;;;;;34.05;20.15;;;;;;;2.34;59.79;100384.61;1584388;88;25355;-74
2021/04/28 03:40:57;;;;;;;36.35;21.60;;;;;;;2.33;59.74;100386.37;1585745;90;25391;-73
2021/04/28 03:43:24;;;;;;;36.35;21.00;;;;;;;2.31;59.84;100388.23;1585714;90;25312;-73
2021/04/28 03:45:54;;;;;;;38.30;20.72;;;;;;;2.32;59.88;100389.90;1585987;89;25356;-74
2021/04/28 03:48:22;;;;;;;37.65;21.85;;;;;;;2.34;59.92;100401.38;1585359;89;27804;-74
2021/04/28 03:50:48;;;;;;;39.13;22.02;;;;;;;2.35;59.96;100399.98;1585608;89;25800;-74
2021/04/28 03:53:14;;;;;;;37.83;22.17;;;;;;;2.38;60.02;100398.95;1584858;90;26019;-73
2021/04/28 03:55:42;;;;;;;37.73;21.42;;;;;;;2.41;60.05;100395.67;1585990;89;25869;-74
2021/04/28 03:58:08;;;;;;;38.85;22.48;;;;;;;2.41;60.05;100392.27;1585311;89;25395;-74
2021/04/28 04:00:35;;;;;;;35.80;21.13;;;;;;;2.46;60.22;100396.63;1585785;89;26640;-73
2021/04/28 04:03:05;;;;;;;36.63;21.37;;;;;;;2.48;60.24;100395.21;1585060;90;25411;-74
2021/04/28 04:05:50;;;;;;;35.38;21.57;;;;;;;2.50;60.24;100404.96;1585334;90;25363;-73
2021/04/28 04:08:29;;;;;;;34.85;20.52;;;;;;;2.51;60.33;100404.86;1585798;88;28764;-73
2021/04/28 04:10:57;;;;;;;37.17;20.23;;;;;;;2.57;60.42;100403.11;1585604;89;25806;-74
2021/04/28 04:13:24;;;;;;;37.80;21.02;;;;;;;2.61;60.46;100406.28;1599500;89;25870;-73
2021/04/28 04:15:50;;;;;;;32.98;20.30;;;;;;;2.66;60.49;100402.43;1574244;89;25866;-74
2021/04/28 04:18:15;;;;;;;37.10;20.30;;;;;;;2.71;60.54;100407.73;1595896;89;30606;-73
2021/04/28 04:20:44;;;;;;;31.68;19.00;;;;;;;2.74;60.56;100404.45;1584757;88;25381;-73
2021/04/28 04:23:23;;;;;;;37.05;20.08;;;;;;;2.78;60.57;100412.33;1582397;89;26003;-74
2021/04/28 04:26:09;;;;;;;32.85;18.82;;;;;;;2.85;60.67;100418.67;1581084;89;26056;-74
2021/04/28 04:28:37;;;;;;;36.70;18.85;;;;;;;2.91;60.71;100417.86;1563367;90;43104;-74
2021/04/28 04:31:05;;;;;;;31.17;18.80;;;;;;;2.96;60.59;100420.45;1562581;90;25928;-76
2021/04/28 04:33:33;;;;;;;32.63;18.50;;;;;;;3.00;60.66;100423.62;1536449;89;25423;-76
2021/04/28 04:36:01;;;;;;;29.23;17.85;;;;;;;3.05;60.67;100422.81;1614291;87;25888;-76
2021/04/28 04:38:45;;;;;;;30.95;17.75;;;;;;;3.10;60.73;100425.39;1581582;89;25719;-76
2021/04/28 04:41:18;;;;;;;29.50;17.80;;;;;;;3.14;60.81;100424.72;1580124;89;25378;-76
2021/04/28 04:43:49;;;;;;;30.92;17.27;;;;;;;3.20;60.68;100426.02;1583260;89;25989;-76
2021/04/28 04:46:15;;;;;;;29.48;17.60;;;;;;;3.28;60.77;100424.49;1606782;87;25835;-76
2021/04/28 04:48:41;;;;;;;31.80;18.57;;;;;;;3.34;60.76;100423.20;1561643;90;25462;-76
2021/04/28 04:51:07;;;;;;;36.33;18.77;;;;;;;3.37;60.70;100428.13;1582816;89;25954;-76
2021/04/28 04:53:33;;;;;;;31.67;18.57;;;;;;;3.42;60.69;100423.91;1581976;89;28787;-76
2021/04/28 04:55:59;;;;;;;36.58;18.80;;;;;;;3.45;60.73;100424.97;1606856;88;25423;-76
2021/04/28 04:58:25;;;;;;;27.93;16.87;;;;;;;3.50;60.82;100424.15;1583896;89;25492;-76
2021/04/28 05:00:51;;;;;;;31.27;17.90;;;;;;;3.55;60.93;100424.14;1597384;88;25824;-76
2021/04/28 05:03:17;;;;;;;31.17;17.53;;;;;;;3.60;60.98;100423.80;1585800;90;25903;-76
2021/04/28 05:05:42;;;;;;;31.77;16.70;;;;;;;3.67;60.91;100419.78;1586169;90;25387;-76
2021/04/28 05:08:09;;;;;;;29.23;16.37;;;;;;;3.76;60.98;100420.37;1586018;89;25620;-76
2021/04/28 05:10:34;;;;;;;29.18;15.88;;;;;;;3.85;60.73;100421.42;1585988;89;25387;-76
2021/04/28 05:13:00;;;;;;;29.40;17.13;;;;;;;3.94;60.79;100423.27;1585507;88;25973;-76
2021/04/28 05:15:26;;;;;;;31.70;17.20;;;;;;;4.02;60.70;100421.38;1586202;90;25934;-76
2021/04/28 05:17:57;;;;;;;30.12;16.02;;;;;;;4.09;60.53;100410.91;1585644;89;25441;-76
2021/04/28 05:20:20;;;;;;;28.77;16.90;;;;;;;4.14;60.27;100417.80;1585669;89;25484;-76
2021/04/28 05:22:46;;;;;;;26.53;15.30;;;;;;;4.20;60.08;100415.20;1583823;88;25441;-75
2021/04/28 05:25:31;;;;;;;40.88;18.90;;;;;;;4.27;59.97;100417.66;1584993;88;25852;-75
2021/04/28 05:27:57;;;;;;;24.55;14.73;;;;;;;4.37;59.85;100418.56;1585390;88;26049;-75
2021/04/28 05:30:23;;;;;;;28.23;16.05;;;;;;;4.43;59.43;100414.66;1584583;88;25474;-78
2021/04/28 05:32:49;;;;;;;27.13;15.30;;;;;;;4.49;59.32;100408.98;1584714;88;25408;-75
2021/04/28 05:35:16;;;;;;;25.47;16.43;;;;;;;4.56;59.15;100408.84;1585380;89;26258;-75
2021/04/28 05:37:42;;;;;;;25.48;15.63;;;;;;;4.64;59.02;100416.80;1599588;88;25839;-77
2021/04/28 05:40:11;;;;;;;27.25;15.38;;;;;;;4.72;58.91;100408.42;1600356;88;25839;-78
2021/04/28 05:42:38;;;;;;;34.73;16.95;;;;;;;4.78;58.78;100411.79;1574181;89;25786;-77
2021/04/28 05:45:07;;;;;;;24.40;14.15;;;;;;;4.86;58.76;100418.45;1594676;88;25846;-78
2021/04/28 05:47:33;;;;;;;28.35;16.02;;;;;;;4.96;58.68;100409.43;1596546;88;25336;-77
2021/04/28 05:49:58;;;;;;;36.88;14.63;;;;;;;5.06;58.53;100410.80;1585714;89;25377;-78
2021/04/28 05:52:25;;;;;;;26.57;14.93;;;;;;;5.15;58.44;100411.30;1586271;89;25486;-78
2021/04/28 05:54:51;;;;;;;30.37;15.45;;;;;;;5.24;58.22;100409.26;1584992;89;25811;-78
2021/04/28 05:57:17;;;;;;;27.70;14.87;;;;;;;5.33;58.10;100409.77;1572751;89;25442;-78
2021/04/28 05:59:46;;;;;;;28.67;16.05;;;;;;;5.43;58.14;100409.81;1574246;89;25401;-78
2021/04/28 06:02:12;;;;;;;31.85;14.20;;;;;;;5.54;57.94;100415.39;1596664;89;25352;-78
2021/04/28 06:04:38;;;;;;;24.20;15.23;;;;;;;5.65;57.81;100411.88;1588289;89;25418;-78
2021/04/28 06:07:05;;;;;;;24.37;15.95;;;;;;;5.75;57.62;100417.41;1585719;89;25389;-78
2021/04/28 06:09:32;;;;;;;24.65;13.60;;;;;;;5.87;57.48;100414.73;1585558;89;25783;-77
2021/04/28 06:11:59;;;;;;;24.50;14.85;;;;;;;5.98;57.37;100409.45;1573604;89;25353;-78
2021/04/28 06:14:25;;;;;;;29.90;14.63;;;;;;;6.09;56.93;100411.11;1573964;89;25432;-77
2021/04/28 06:16:51;;;;;;;24.85;13.93;;;;;;;6.18;56.64;100413.70;1596450;88;25859;-75
2021/04/28 06:19:17;;;;;;;26.23;14.03;;;;;;;6.30;55.87;100414.87;1584569;89;25700;-74
2021/04/28 06:21:43;;;;;;;23.10;12.87;;;;;;;6.38;55.32;100405.47;1585329;89;25816;-75
2021/04/28 06:24:10;;;;;;;24.12;13.60;;;;;;;6.45;55.19;100406.54;1584919;89;25865;-75
2021/04/28 06:26:39;;;;;;;22.32;13.25;;;;;;;6.57;55.02;100414.19;1585689;89;25438;-75
2021/04/28 06:29:05;;;;;;;27.65;13.55;;;;;;;6.66;54.35;100405.10;1584337;89;26031;-74
2021/04/28 06:31:30;;;;;;;22.13;12.58;;;;;;;6.75;54.10;100409.13;1584732;89;25330;-76
2021/04/28 06:33:56;;;;;;;29.60;13.20;;;;;;;6.83;53.92;100407.47;1586491;89;25604;-74
2021/04/28 06:36:22;;;;;;;21.20;12.17;;;;;;;6.94;53.83;100404.38;1585764;89;28631;-75
2021/04/28 06:38:48;;;;;;;22.85;12.70;;;;;;;7.04;53.43;100409.08;1586818;89;25364;-77
2021/04/28 06:41:14;;;;;;;19.70;11.53;;;;;;;7.14;53.33;100405.13;1585815;88;25478;-77
2021/04/28 06:43:40;;;;;;;21.23;13.00;;;;;;;7.25;53.14;100399.76;1587756;88;25518;-77
2021/04/28 06:46:07;;;;;;;22.67;11.38;;;;;;;7.34;52.44;100407.53;1586359;88;26027;-74
2021/04/28 06:48:33;;;;;;;17.75;10.45;;;;;;;7.42;52.50;100396.42;1585121;89;25757;-74
2021/04/28 06:50:59;;;;;;;20.43;10.88;;;;;;;7.51;52.12;100392.14;1584729;88;25364;-77
2021/04/28 06:53:25;;;;;;;19.50;11.43;;;;;;;7.59;52.11;100388.81;1585131;89;25610;-75
2021/04/28 06:55:51;;;;;;;21.62;11.40;;;;;;;7.69;51.52;100390.41;1564789;90;25817;-74
2021/04/28 06:58:17;;;;;;;24.73;11.60;;;;;;;7.78;51.32;100388.22;1586151;89;26286;-73
2021/04/28 07:00:43;;;;;;;17.73;11.07;;;;;;;7.85;51.26;100386.33;1585420;89;33044;-77
2021/04/28 07:03:09;;;;;;;19.35;11.25;;;;;;;7.94;50.81;100385.47;1587186;89;25393;-74
2021/04/28 07:05:36;;;;;;;23.00;11.68;;;;;;;8.03;50.58;100384.57;1584959;88;27390;-75
2021/04/28 07:08:03;;;;;;;21.52;11.20;;;;;;;8.10;50.45;100383.02;1584243;88;25584;-75
2021/04/28 07:10:29;;;;;;;20.57;10.28;;;;;;;8.19;50.22;100379.52;1584806;89;25706;-74
2021/04/28 07:12:55;;;;;;;23.27;10.93;;;;;;;8.31;50.09;100380.59;1584933;88;32178;-76
2021/04/28 07:15:21;;;;;;;17.23;11.77;;;;;;;8.41;50.09;100379.57;1574034;90;29769;-76
2021/04/28 07:17:49;;;;;;;19.13;11.00;;;;;;;8.51;50.03;100376.89;1585106;88;25432;-78
2021/04/28 07:20:16;;;;;;;24.40;10.80;;;;;;;8.60;49.99;100382.98;1587528;89;25809;-78
2021/04/28 07:22:42;;;;;;;17.27;9.80;;;;;;;8.68;49.47;100377.83;1541122;90;25822;-74
2021/04/28 07:25:11;;;;;;;19.48;10.20;;;;;;;8.80;49.32;100386.20;1585271;89;25661;-74
2021/04/28 07:27:38;;;;;;;23.25;10.58;;;;;;;8.88;48.88;100377.95;1586757;88;25825;-77
2021/04/28 07:30:07;;;;;;;15.70;9.83;;;;;;;8.98;48.51;100379.65;1587669;89;25675;-77
2021/04/28 07:32:33;;;;;;;16.23;9.50;;;;;;;9.07;48.32;100380.83;1585727;88;25338;-75
2021/04/28 07:34:59;;;;;;;14.80;8.78;;;;;;;9.17;47.81;100378.61;1585530;88;25387;-75
2021/04/28 07:37:25;;;;;;;16.10;8.33;;;;;;;9.29;47.21;100377.36;1585890;89;25359;-75
2021/04/28 07:39:51;;;;;;;21.65;8.70;;;;;;;9.37;45.79;100376.09;1585310;89;30800;-76
2021/04/28 07:42:17;;;;;;;15.83;9.30;;;;;;;9.42;46.70;100376.44;1586708;89;25835;-75
2021/04/28 07:44:43;;;;;;;14.85;8.43;;;;;;;9.51;46.63;100370.27;1585687;89;25375;-74
2021/04/28 07:47:08;;;;;;;12.73;8.87;;;;;;;9.61;46.14;100369.34;1586056;89;25839;-74
2021/04/28 07:49:36;;;;;;;18.47;9.03;;;;;;;9.66;45.70;100365.27;1585351;89;34509;-74
2021/04/28 07:52:01;;;;;;;17.85;8.53;;;;;;;9.73;45.45;100367.55;1586335;89;25347;-74
2021/04/28 07:54:28;;;;;;;13.20;8.97;;;;;;;9.81;45.50;100362.85;1585107;89;25720;-72
2021/04/28 07:56:54;;;;;;;18.52;8.55;;;;;;;9.91;44.96;100365.33;1586120;89;25794;-72
2021/04/28 07:59:21;;;;;;;13.93;8.70;;;;;;;10.00;44.92;100363.86;1585866;89;25891;-75
2021/04/28 08:01:48;;;;;;;12.70;8.45;;;;;;;10.09;44.60;100365.17;1585806;89;25765;-76
2021/04/28 08:04:15;;;;;;;13.40;8.15;;;;;;;10.17;44.10;100363.38;1584952;88;25833;-75
2021/04/28 08:06:41;;;;;;;12.20;7.67;;;;;;;10.27;44.20;100364.58;1573761;89;25900;-77
2021/04/28 08:09:07;;;;;;;13.28;8.78;;;;;;;10.35;43.07;100364.58;1599615;88;25754;-77
2021/04/28 08:11:33;;;;;;;16.90;7.95;;;;;;;10.36;43.20;100362.78;1600135;88;25881;-77
2021/04/28 08:13:59;;;;;;;30.15;20.27;;;;;;;10.40;42.24;100362.79;1599439;88;34848;-74
2021/04/28 08:16:25;;;;;;;49.15;35.78;;;;;;;10.78;53.89;100365.70;1600280;88;32150;-74
2021/04/28 08:18:51;;;;;;;20.13;10.13;;;;;;;11.47;48.61;100351.08;1599284;88;25771;-75
2021/04/28 08:21:18;;;;;;;17.20;8.60;;;;;;;11.84;45.23;100347.43;1588973;88;29986;-75
2021/04/28 08:23:44;;;;;;;15.70;8.40;;;;;;;11.85;43.30;100345.95;1599645;88;25946;-74
2021/04/28 08:26:13;;;;;;;16.60;7.62;;;;;;;11.64;42.70;100343.95;1599216;88;35009;-76
2021/04/28 08:28:42;;;;;;;16.10;9.38;;;;;;;11.54;42.40;100342.06;1600130;88;25815;-75
2021/04/28 08:31:14;;;;;;;12.88;7.67;;;;;;;11.50;42.00;100342.88;1599364;88;25783;-76
2021/04/28 08:33:41;;;;;;;13.83;7.80;;;;;;;11.47;41.84;100345.84;1600318;88;25905;-77
2021/04/28 08:36:08;;;;;;;11.63;7.50;;;;;;;11.49;41.71;100341.76;1573354;91;25354;-75
2021/04/28 08:38:36;;;;;;;15.72;7.60;;;;;;;11.48;41.21;100340.11;1599791;88;25715;-77
2021/04/28 08:41:04;;;;;;;18.95;7.65;;;;;;;11.52;41.56;100342.72;1573443;89;26468;-77
2021/04/28 08:43:30;;;;;;;15.30;8.38;;;;;;;11.52;40.67;100342.22;1573041;89;25796;-75
2021/04/28 08:45:56;;;;;;;12.47;7.60;;;;;;;11.52;39.81;100335.67;1599230;88;31971;-75
2021/04/28 08:48:23;;;;;;;13.43;5.92;;;;;;;11.51;40.22;100334.06;1600119;88;25912;-75
2021/04/28 08:50:49;;;;;;;10.95;6.50;;;;;;;11.53;39.58;100332.06;1599276;88;25742;-75
2021/04/28 08:53:17;;;;;;;13.58;6.15;;;;;;;11.51;38.68;100330.59;1600522;88;25327;-76
2021/04/28 08:55:44;;;;;;;13.15;6.95;;;;;;;11.52;39.10;100331.75;1599478;88;25795;-76
2021/04/28 08:58:12;;;;;;;16.57;7.35;;;;;;;11.58;39.00;100330.24;1600237;88;25737;-75
2021/04/28 09:00:38;;;;;;;10.08;6.40;;;;;;;11.64;39.54;100325.63;1599711;88;26407;-75
2021/04/28 09:03:05;;;;;;;13.68;7.00;;;;;;;11.75;39.55;100325.22;1599471;88;25370;-77
2021/04/28 09:05:34;;;;;;;11.60;6.55;;;;;;;11.83;38.07;100322.24;1599806;89;25795;-77
2021/04/28 09:08:02;;;;;;;10.55;6.55;;;;;;;11.85;38.66;100325.01;1599734;88;26539;-77
2021/04/28 09:10:30;;;;;;;12.18;7.10;;;;;;;11.88;38.60;100325.19;1567971;89;25883;-77
2021/04/28 09:13:06;;;;;;;10.90;6.30;;;;;;;11.91;38.65;100317.78;1600847;88;25447;-78
2021/04/28 09:15:45;;;;;;;9.60;6.75;;;;;;;11.95;38.33;100324.32;1573950;89;25821;-79
2021/04/28 09:18:14;;;;;;;11.73;6.50;;;;;;;12.04;38.33;100315.09;1596237;89;32452;-79
2021/04/28 09:21:00;;;;;;;12.30;7.03;;;;;;;12.07;36.80;100315.55;1600188;88;25845;-79
2021/04/28 09:23:44;;;;;;;10.65;6.53;;;;;;;12.09;37.45;100315.38;1599675;88;25857;-79
2021/04/28 09:26:32;;;;;;;13.30;7.03;;;;;;;12.09;37.44;100314.88;1573280;89;25802;-76
2021/04/28 09:29:17;;;;;;;11.75;6.72;;;;;;;12.18;37.96;100316.44;1600055;88;25793;-78
2021/04/28 09:32:08;;;;;;;9.40;5.83;;;;;;;12.31;37.70;100307.17;1573971;89;25780;-79
2021/04/28 09:34:38;;;;;;;16.27;6.75;;;;;;;12.31;36.77;100301.43;1600237;88;26667;-78
2021/04/28 09:37:17;;;;;;;12.88;6.65;;;;;;;12.36;38.04;100301.72;1574469;89;25884;-75
2021/04/28 09:39:51;;;;;;;12.88;6.47;;;;;;;12.40;37.51;100296.92;1596287;89;25862;-76
2021/04/28 09:42:19;;;;;;;9.53;6.00;;;;;;;12.47;37.83;100301.78;1585051;89;25855;-76
2021/04/28 09:44:49;;;;;;;9.58;5.97;;;;;;;12.53;37.53;100284.52;1584543;88;26562;-77
2021/04/28 09:47:21;;;;;;;13.95;6.12;;;;;;;12.56;37.17;100290.21;1587289;89;25657;-78
2021/04/28 09:50:00;;;;;;;10.32;6.22;;;;;;;12.63;37.57;100283.27;1584913;88;25843;-75
2021/04/28 09:52:36;;;;;;;11.57;6.85;;;;;;;12.75;37.14;100284.13;1584676;88;25951;-75
2021/04/28 09:55:07;;;;;;;17.67;7.30;;;;;;;12.80;37.04;100273.41;1585124;89;25824;-78
2021/04/28 09:57:45;;;;;;;15.15;6.72;;;;;;;12.89;36.88;100274.11;1586959;88;25738;-78
2021/04/28 10:00:24;;;;;;;15.60;7.12;;;;;;;12.85;36.29;100265.80;1573637;89;25875;-72
2021/04/28 10:03:02;;;;;;;12.20;6.87;;;;;;;12.88;35.99;100266.75;1596127;89;26088;-70
2021/04/28 10:05:36;;;;;;;11.78;6.92;;;;;;;12.87;36.08;100264.30;1584687;88;26603;-75
2021/04/28 10:08:12;;;;;;;16.35;6.45;;;;;;;12.94;35.74;100256.53;1584926;88;26500;-75
2021/04/28 10:10:41;;;;;;;16.82;7.42;;;;;;;12.97;36.28;100257.47;1585885;88;25832;-78
2021/04/28 10:13:07;;;;;;;19.52;8.40;;;;;;;13.01;35.78;100256.09;1573425;89;26134;-78
2021/04/28 10:15:35;;;;;;;11.43;6.22;;;;;;;13.05;35.19;100254.74;1599792;88;25786;-77
2021/04/28 10:18:05;;;;;;;15.88;8.00;;;;;;;13.02;35.02;100248.05;1599514;88;25857;-77
2021/04/28 10:20:34;;;;;;;14.65;8.20;;;;;;;13.02;35.73;100251.17;1600083;88;25763;-77
2021/04/28 10:23:09;;;;;;;12.68;7.03;;;;;;;13.21;35.79;100254.53;1599001;88;25727;-78
2021/04/28 10:25:38;;;;;;;11.90;7.28;;;;;;;13.26;34.97;100240.89;1574230;88;27535;-71
2021/04/28 10:28:07;;;;;;;11.00;6.80;;;;;;;13.29;34.50;100249.70;1599340;88;25361;-71
2021/04/28 10:30:46;;;;;;;14.03;6.30;;;;;;;13.23;34.87;100242.05;1599983;89;25789;-72
2021/04/28 10:33:19;;;;;;;15.38;7.12;;;;;;;13.24;34.98;100241.53;1599473;88;25779;-76
2021/04/28 10:35:47;;;;;;;18.15;7.35;;;;;;;13.27;34.88;100245.13;1600473;87;25729;-71
2021/04/28 10:38:16;;;;;;;9.90;6.50;;;;;;;13.31;34.86;100237.19;1599157;88;25675;-71
2021/04/28 10:40:42;;;;;;;14.35;6.90;;;;;;;13.44;35.08;100239.14;1597823;88;25799;-71
2021/04/28 10:43:10;;;;;;;11.57;6.83;;;;;;;13.59;35.16;100237.28;1599915;88;31409;-71
2021/04/28 10:45:38;;;;;;;12.55;7.08;;;;;;;13.71;35.41;100232.33;1599151;88;25798;-72
2021/04/28 10:48:12;;;;;;;11.95;6.75;;;;;;;13.77;34.59;100236.31;1599980;88;25804;-71
2021/04/28 10:50:48;;;;;;;17.17;7.15;;;;;;;13.74;33.84;100228.81;1598816;88;25687;-71
2021/04/28 10:53:21;;;;;;;12.00;6.90;;;;;;;13.73;34.40;100231.65;1599936;88;25798;-69
2021/04/28 10:56:15;;;;;;;12.65;7.47;;;;;;;13.82;34.17;100227.07;1598783;89;25781;-71
2021/04/28 10:58:44;;;;;;;12.25;7.37;;;;;;;13.83;34.08;100222.95;1599013;88;26132;-70
2021/04/28 11:01:18;;;;;;;13.05;7.33;;;;;;;13.86;33.92;100216.48;1599139;88;25590;-70
2021/04/28 11:03:54;;;;;;;11.60;6.37;;;;;;;13.95;34.61;100224.55;1599291;88;26725;-76
2021/04/28 11:06:26;;;;;;;22.62;6.83;;;;;;;14.08;34.22;100218.59;1589097;88;25817;-77
2021/04/28 11:09:05;;;;;;;11.83;7.22;;;;;;;14.20;34.37;100221.80;1598774;88;25813;-77
2021/04/28 11:14:28;;;;;;;13.50;7.40;;;;;;;14.38;34.69;100209.99;1628288;86;25791;-78
2021/04/28 11:17:19;;;;;;;11.05;7.33;;;;;;;14.55;34.91;100206.06;1611721;87;26668;-76
2021/04/28 11:19:50;;;;;;;11.40;6.72;;;;;;;14.68;34.48;100200.54;1627561;86;25805;-77
2021/04/28 11:22:28;;;;;;;22.95;8.00;;;;;;;14.79;34.67;100194.74;1617687;86;25850;-77
2021/04/28 11:25:03;;;;;;;12.65;6.60;;;;;;;14.90;34.59;100199.95;1625749;86;25687;-77
2021/04/28 11:27:59;;;;;;;12.70;7.45;;;;;;;14.95;34.40;100198.34;1618226;86;25504;-77
2021/04/28 11:30:42;;;;;;;17.60;8.20;;;;;;;14.98;34.33;100182.16;1619109;88;26477;-79
2021/04/28 11:33:32;;;;;;;11.10;7.50;;;;;;;15.08;34.53;100176.49;1610467;86;26225;-77